createdAt,value
2018-04-06T00:00:24.235Z,93.89
2018-04-06T00:01:24.220Z,93.7
2018-04-06T00:02:24.213Z,93.61
2018-04-06T00:03:24.200Z,93.89
2018-04-06T00:04:24.185Z,93.99
2018-04-06T00:05:23.933Z,93.89
2018-04-06T00:06:23.908Z,94.46
2018-04-06T00:07:23.895Z,94.27
2018-04-06T00:08:23.885Z,94.56
2018-04-06T00:09:24.124Z,94.65
2018-04-06T00:10:24.113Z,94.93
2018-04-06T00:11:24.108Z,95.22
2018-04-06T00:12:24.096Z,95.79
2018-04-06T00:13:24.073Z,95.5
2018-04-06T00:14:24.061Z,95.79
2018-04-06T00:15:24.065Z,95.5
2018-04-06T00:16:24.039Z,95.5
2018-04-06T00:17:23.772Z,95.6
2018-04-06T00:18:23.760Z,95.69
2018-04-06T00:19:23.748Z,96.17
2018-04-06T00:20:23.740Z,96.92
2018-04-06T00:21:23.976Z,96.17
2018-04-06T00:22:23.965Z,96.07
2018-04-06T00:23:23.699Z,96.55
2018-04-06T00:24:23.684Z,96.64
2018-04-06T00:25:23.926Z,96.64
2018-04-06T00:26:23.921Z,96.92
2018-04-06T00:27:23.902Z,96.73
2018-04-06T00:28:23.907Z,96.83
2018-04-06T00:29:23.876Z,96.55
2018-04-06T00:30:23.865Z,96.83
2018-04-06T00:31:23.849Z,96.64
2018-04-06T00:32:23.840Z,96.83
2018-04-06T00:33:23.824Z,96.73
2018-04-06T00:34:23.812Z,97.11
2018-04-06T00:35:23.800Z,96.92
2018-04-06T00:36:23.789Z,96.64
2018-04-06T00:37:23.775Z,96.92
2018-04-06T00:38:23.762Z,96.73
2018-04-06T00:39:23.748Z,97.21
2018-04-06T00:40:23.738Z,97.87
2018-04-06T00:41:23.475Z,97.49
2018-04-06T00:42:23.711Z,97.68
2018-04-06T00:43:23.714Z,97.49
2018-04-06T00:44:23.684Z,97.44
2018-04-06T00:45:23.673Z,97.92
2018-04-06T00:46:23.659Z,97.63
2018-04-06T00:47:23.647Z,97.97
2018-04-06T00:48:23.382Z,97.87
2018-04-06T00:49:23.621Z,97.92
2018-04-06T00:50:23.355Z,97.54
2018-04-06T00:51:23.596Z,97.73
2018-04-06T00:52:23.585Z,97.82
2018-04-06T00:53:23.569Z,97.92
2018-04-06T00:54:23.304Z,98.58
2018-04-06T00:55:23.548Z,97.73
2018-04-06T00:56:23.545Z,97.92
2018-04-06T00:57:23.518Z,98.39
2018-04-06T00:58:23.505Z,98.11
2018-04-06T00:59:23.493Z,97.92
2018-04-06T01:00:23.229Z,98.3
2018-04-06T01:01:23.467Z,97.73
2018-04-06T01:02:23.455Z,97.73
2018-04-06T01:03:23.443Z,97.63
2018-04-06T01:04:23.176Z,97.73
2018-04-06T01:05:23.416Z,97.92
2018-04-06T01:06:23.406Z,98.3
2018-04-06T01:07:23.394Z,98.01
2018-04-06T01:08:23.377Z,98.01
2018-04-06T01:09:23.372Z,98.3
2018-04-06T01:10:23.352Z,98.39
2018-04-06T01:11:23.340Z,98.58
2018-04-06T01:12:23.327Z,98.2
2018-04-06T01:13:23.320Z,98.68
2018-04-06T01:14:23.305Z,98.11
2018-04-06T01:15:23.287Z,98.58
2018-04-06T01:16:23.291Z,98.86
2018-04-06T01:17:23.261Z,98.58
2018-04-06T01:18:23.249Z,98.3
2018-04-06T01:19:22.982Z,98.49
2018-04-06T01:20:22.973Z,99.24
2018-04-06T01:21:23.222Z,98.86
2018-04-06T01:22:22.945Z,98.86
2018-04-06T01:23:23.196Z,98.77
2018-04-06T01:24:23.169Z,98.86
2018-04-06T01:25:23.162Z,98.96
2018-04-06T01:26:22.892Z,98.86
2018-04-06T01:27:23.133Z,99.33
2018-04-06T01:28:23.119Z,99.05
2018-04-06T01:29:23.116Z,99.05
2018-04-06T01:30:23.096Z,99.52
2018-04-06T01:31:23.085Z,99.62
2018-04-06T01:32:23.069Z,98.77
2018-04-06T01:33:22.803Z,98.77
2018-04-06T01:34:23.041Z,98.68
2018-04-06T01:35:23.032Z,98.58
2018-04-06T01:36:22.766Z,98.77
2018-04-06T01:37:23.004Z,99.43
2018-04-06T01:38:22.993Z,98.86
2018-04-06T01:39:22.987Z,99.52
2018-04-06T01:40:22.964Z,99.43
2018-04-06T01:44:22.656Z,99.43
2018-04-06T01:45:22.894Z,99.43
2018-04-06T01:46:22.881Z,99.81
2018-04-06T01:47:22.875Z,99.43
2018-04-06T01:48:22.852Z,99.52
2018-04-06T01:49:22.844Z,99.81
2018-04-06T01:50:22.827Z,99.81
2018-04-06T01:51:22.838Z,99.81
2018-04-06T01:52:22.801Z,99.52
2018-04-06T01:53:22.795Z,99.52
2018-04-06T01:54:22.520Z,99.81
2018-04-06T01:55:22.761Z,99.99
2018-04-06T01:56:22.745Z,99.99
2018-04-06T01:57:22.731Z,99.81
2018-04-06T01:58:22.467Z,99.99
2018-04-06T01:59:22.708Z,99.99
2018-04-06T02:00:22.692Z,99.99
2018-04-06T02:01:22.684Z,99.99
2018-04-06T02:02:22.664Z,99.99
2018-04-06T02:03:22.652Z,99.99
2018-04-06T02:04:22.638Z,99.99
2018-04-06T02:05:22.624Z,99.81
2018-04-06T02:06:22.611Z,99.99
2018-04-06T02:07:22.606Z,99.99
2018-04-06T02:08:22.584Z,99.9
2018-04-06T02:09:22.576Z,99.99
2018-04-06T02:10:22.559Z,99.9
2018-04-06T02:11:22.543Z,99.99
2018-04-06T02:12:22.530Z,99.99
2018-04-06T02:13:22.517Z,99.99
2018-04-06T02:14:22.503Z,99.99
2018-04-06T02:15:22.490Z,99.99
2018-04-06T02:16:22.477Z,99.99
2018-04-06T02:17:22.463Z,99.99
2018-04-06T02:18:22.449Z,99.99
2018-04-06T02:19:22.184Z,99.99
2018-04-06T02:20:22.424Z,99.99
2018-04-06T02:21:22.410Z,99.99
2018-04-06T02:22:22.401Z,99.99
2018-04-06T02:23:22.131Z,99.99
2018-04-06T02:24:22.370Z,99.99
2018-04-06T02:25:22.358Z,99.99
2018-04-06T02:26:22.342Z,99.99
2018-04-06T02:27:22.334Z,99.99
2018-04-06T02:28:22.315Z,99.99
2018-04-06T02:29:22.303Z,99.99
2018-04-06T02:30:22.038Z,99.99
2018-04-06T02:31:22.281Z,99.99
2018-04-06T02:32:22.263Z,99.99
2018-04-06T02:33:21.996Z,99.99
2018-04-06T02:34:22.238Z,99.99
2018-04-06T02:35:22.232Z,99.99
2018-04-06T02:36:22.215Z,99.99
2018-04-06T02:37:22.202Z,99.99
2018-04-06T02:38:22.185Z,99.99
2018-04-06T02:39:22.173Z,99.99
2018-04-06T02:40:22.160Z,99.99
2018-04-06T02:41:22.156Z,99.99
2018-04-06T02:42:22.159Z,99.99
2018-04-06T02:43:22.120Z,99.99
2018-04-06T02:44:22.105Z,99.99
2018-04-06T02:45:22.093Z,99.99
2018-04-06T02:46:22.079Z,99.99
2018-04-06T02:47:22.066Z,99.99
2018-04-06T02:48:22.060Z,99.99
2018-04-06T02:49:22.037Z,99.99
2018-04-06T02:50:21.769Z,99.99
2018-04-06T02:51:22.013Z,99.99
2018-04-06T02:52:21.997Z,99.99
2018-04-06T02:53:21.979Z,99.99
2018-04-06T02:54:21.714Z,99.99
2018-04-06T02:55:21.960Z,99.99
2018-04-06T02:56:21.939Z,99.99
2018-04-06T02:58:21.911Z,99.99
2018-04-06T02:59:21.906Z,99.99
2018-04-06T03:00:21.887Z,99.99
2018-04-06T03:01:21.871Z,99.99
2018-04-06T03:02:21.866Z,99.99
2018-04-06T03:03:21.847Z,99.99
2018-04-06T03:04:21.829Z,99.99
2018-04-06T03:05:21.831Z,99.99
2018-04-06T03:06:21.806Z,99.99
2018-04-06T03:07:21.787Z,99.99
2018-04-06T03:08:21.781Z,99.99
2018-04-06T03:09:21.833Z,99.99
2018-04-06T03:10:21.497Z,99.99
2018-04-06T03:11:21.739Z,99.99
2018-04-06T03:12:21.727Z,99.99
2018-04-06T03:13:21.708Z,99.99
2018-04-06T03:14:21.699Z,99.99
2018-04-06T03:15:21.683Z,99.99
2018-04-06T03:16:21.667Z,99.99
2018-04-06T03:17:21.654Z,99.99
2018-04-06T03:18:21.643Z,99.99
2018-04-06T03:19:21.629Z,99.99
2018-04-06T03:20:21.363Z,99.99
2018-04-06T03:21:21.345Z,99.99
2018-04-06T03:22:21.588Z,99.99
2018-04-06T03:23:21.317Z,99.99
2018-04-06T03:24:21.556Z,99.99
2018-04-06T03:25:21.543Z,99.99
2018-04-06T03:26:21.530Z,99.99
2018-04-06T03:27:21.514Z,99.99
2018-04-06T03:28:21.250Z,99.99
2018-04-06T03:29:21.236Z,99.99
2018-04-06T03:30:21.480Z,99.99
2018-04-06T03:31:21.467Z,99.99
2018-04-06T03:32:21.447Z,99.99
2018-04-06T03:33:21.180Z,99.99
2018-04-06T03:34:21.419Z,99.99
2018-04-06T03:35:21.405Z,99.99
2018-04-06T03:36:21.391Z,99.99
2018-04-06T03:37:21.126Z,99.99
2018-04-06T03:38:21.363Z,99.99
2018-04-06T03:39:21.347Z,99.99
2018-04-06T03:40:21.337Z,99.99
2018-04-06T03:41:21.320Z,99.99
2018-04-06T03:42:21.054Z,99.99
2018-04-06T03:43:21.293Z,99.99
2018-04-06T03:44:21.284Z,99.99
2018-04-06T03:45:21.265Z,99.99
2018-04-06T03:46:21.252Z,99.99
2018-04-06T03:47:20.985Z,99.99
2018-04-06T03:48:20.971Z,99.99
2018-04-06T03:49:21.213Z,99.99
2018-04-06T03:50:20.944Z,99.99
2018-04-06T03:51:21.187Z,99.99
2018-04-06T03:52:21.167Z,99.99
2018-04-06T03:53:21.158Z,99.99
2018-04-06T03:54:20.892Z,99.99
2018-04-06T03:55:21.152Z,99.99
2018-04-06T03:56:21.113Z,99.99
2018-04-06T03:57:21.097Z,99.99
2018-04-06T03:58:21.084Z,99.99
2018-04-06T03:59:21.070Z,99.99
2018-04-06T04:00:20.804Z,99.99
2018-04-06T04:01:20.795Z,99.99
2018-04-06T04:02:21.037Z,99.99
2018-04-06T04:03:21.018Z,99.99
2018-04-06T04:04:20.748Z,99.99
2018-04-06T04:05:20.733Z,99.99
2018-04-06T04:06:20.973Z,99.99
2018-04-06T04:07:20.962Z,99.99
2018-04-06T04:08:20.950Z,99.99
2018-04-06T04:09:20.677Z,99.99
2018-04-06T04:10:20.666Z,99.99
2018-04-06T04:11:20.649Z,99.99
2018-04-06T04:12:20.886Z,99.99
2018-04-06T04:13:20.878Z,99.99
2018-04-06T04:14:20.861Z,99.99
2018-04-06T04:15:20.853Z,99.99
2018-04-06T04:16:20.834Z,99.99
2018-04-06T04:17:20.820Z,99.99
2018-04-06T04:18:20.552Z,99.99
2018-04-06T04:19:20.536Z,99.99
2018-04-06T04:20:20.775Z,99.99
2018-04-06T04:21:20.775Z,99.99
2018-04-06T04:22:20.749Z,99.99
2018-04-06T04:23:20.481Z,99.99
2018-04-06T04:24:20.719Z,99.99
2018-04-06T04:25:20.706Z,99.99
2018-04-06T04:26:20.690Z,99.99
2018-04-06T04:27:20.424Z,99.99
2018-04-06T04:28:20.668Z,99.99
2018-04-06T04:29:20.648Z,99.99
2018-04-06T04:30:20.386Z,99.99
2018-04-06T04:31:20.620Z,99.99
2018-04-06T04:32:20.608Z,99.99
2018-04-06T04:33:20.608Z,99.99
2018-04-06T04:34:20.579Z,99.99
2018-04-06T04:35:20.564Z,99.99
2018-04-06T04:36:20.550Z,99.99
2018-04-06T04:37:20.533Z,99.99
2018-04-06T04:38:20.521Z,99.99
2018-04-06T04:39:20.508Z,99.99
2018-04-06T04:40:20.494Z,99.99
2018-04-06T04:41:20.479Z,99.99
2018-04-06T04:42:20.474Z,99.99
2018-04-06T04:43:20.452Z,99.99
2018-04-06T04:44:20.452Z,99.99
2018-04-06T04:45:20.428Z,99.99
2018-04-06T04:46:20.414Z,99.99
2018-04-06T04:47:20.399Z,99.99
2018-04-06T04:48:20.129Z,99.99
2018-04-06T04:49:20.373Z,99.99
2018-04-06T04:50:20.103Z,99.99
2018-04-06T04:51:20.340Z,99.99
2018-04-06T04:52:20.327Z,99.99
2018-04-06T04:53:20.100Z,99.99
2018-04-06T04:54:20.302Z,99.99
2018-04-06T04:55:20.285Z,99.99
2018-04-06T04:56:20.271Z,99.99
2018-04-06T04:57:20.257Z,99.99
2018-04-06T04:58:20.242Z,99.99
2018-04-06T04:59:20.233Z,99.99
2018-04-06T05:00:20.216Z,99.99
2018-04-06T05:01:20.206Z,99.99
2018-04-06T05:02:20.190Z,99.99
2018-04-06T05:03:19.925Z,99.99
2018-04-06T05:04:19.912Z,99.99
2018-04-06T05:05:20.151Z,99.99
2018-04-06T05:06:20.141Z,99.99
2018-04-06T05:07:20.126Z,99.99
2018-04-06T05:08:19.864Z,99.99
2018-04-06T05:09:20.102Z,99.99
2018-04-06T05:10:20.090Z,99.99
2018-04-06T05:11:20.078Z,99.91
2018-04-06T05:12:20.072Z,99.99
2018-04-06T05:13:20.058Z,99.25
2018-04-06T05:14:20.052Z,98.96
2018-04-06T05:15:20.036Z,98.54
2018-04-06T05:16:20.020Z,98.07
2018-04-06T05:17:20.012Z,97.69
2018-04-06T05:18:20.000Z,97.45
2018-04-06T05:19:19.994Z,96.97
2018-04-06T05:20:19.725Z,96.31
2018-04-06T05:21:19.969Z,95.6
2018-04-06T05:22:19.959Z,94.56
2018-04-06T05:23:19.953Z,93.6
2018-04-06T05:24:19.940Z,93.75
2018-04-06T05:25:19.931Z,92.8
2018-04-06T05:26:19.920Z,92.51
2018-04-06T05:27:19.912Z,91.99
2018-04-06T05:28:19.906Z,91.13
2018-04-06T05:29:19.898Z,90.66
2018-04-06T05:30:19.633Z,90.23
2018-04-06T05:31:19.889Z,89.37
2018-04-06T05:32:19.888Z,89
2018-04-06T05:33:19.862Z,88.46
2018-04-06T05:34:19.601Z,87.04
2018-04-06T05:35:19.847Z,87.08
2018-04-06T05:36:19.586Z,86.61
2018-04-06T05:37:19.831Z,85.6
2018-04-06T05:38:19.824Z,84.08
2018-04-06T05:39:19.819Z,83.7
2018-04-06T05:40:19.811Z,82.89
2018-04-06T05:41:19.556Z,82.6
2018-04-06T05:42:19.805Z,81.36
2018-04-06T05:43:19.809Z,80.44
2018-04-06T05:44:19.788Z,79.88
2018-04-06T05:45:19.795Z,79.3
2018-04-06T05:46:19.778Z,78.49
2018-04-06T05:47:19.772Z,77.82
2018-04-06T05:48:19.517Z,77.25
2018-04-06T05:49:19.765Z,76.04
2018-04-06T05:50:19.766Z,75.47
2018-04-06T05:51:19.757Z,74.46
2018-04-06T05:52:19.750Z,73.22
2018-04-06T05:53:19.492Z,72.93
2018-04-06T05:54:19.749Z,71.72
2018-04-06T05:55:19.498Z,71.06
2018-04-06T05:56:19.736Z,70.77
2018-04-06T05:57:19.738Z,69.47
2018-04-06T05:58:20.067Z,68.32
2018-04-06T05:59:19.757Z,67.65
2018-04-06T06:00:19.729Z,66.73
2018-04-06T06:01:19.724Z,66.16
2018-04-06T06:02:19.717Z,65.11
2018-04-06T06:03:19.717Z,64.66
2018-04-06T06:04:19.709Z,63.8
2018-04-06T06:05:19.708Z,63.23
2018-04-06T06:06:19.715Z,62.74
2018-04-06T06:07:19.706Z,62.17
2018-04-06T06:08:19.701Z,61.91
2018-04-06T06:09:19.701Z,61.05
2018-04-06T06:10:19.712Z,60
2018-04-06T06:11:19.703Z,58.5
2018-04-06T06:12:19.697Z,57.64
2018-04-06T06:13:19.712Z,57.73
2018-04-06T06:14:19.704Z,57.35
2018-04-06T06:15:19.705Z,56.3
2018-04-06T06:16:19.690Z,56.87
2018-04-06T06:17:19.439Z,56.04
2018-04-06T06:18:19.436Z,56.23
2018-04-06T06:21:19.687Z,54.53
2018-04-06T06:22:19.694Z,53.96
2018-04-06T06:23:19.747Z,53.86
2018-04-06T06:24:19.684Z,53.79
2018-04-06T06:25:32.163Z,53.22
2018-04-06T06:26:20.958Z,52.64
2018-04-06T06:27:19.684Z,51.2
2018-04-06T06:28:19.683Z,51.2
2018-04-06T06:29:19.741Z,50.63
2018-04-06T06:30:19.433Z,51.1
2018-04-06T06:31:19.683Z,51.2
2018-04-06T06:32:19.692Z,51.42
2018-04-06T06:33:19.685Z,50.84
2018-04-06T06:34:19.689Z,50.56
2018-04-06T06:35:19.691Z,50.65
2018-04-06T06:36:19.690Z,50.1
2018-04-06T06:37:19.442Z,48.57
2018-04-06T06:38:19.700Z,48.28
2018-04-06T06:39:19.706Z,48.18
2018-04-06T06:40:19.711Z,47.99
2018-04-06T06:42:19.447Z,48.66
2018-04-06T06:43:19.713Z,49.15
2018-04-06T06:44:19.705Z,49.24
2018-04-06T06:45:19.703Z,49.05
2018-04-06T06:46:19.711Z,48.11
2018-04-06T06:47:19.712Z,47.92
2018-04-06T06:48:19.712Z,47.56
2018-04-06T06:49:19.714Z,46.41
2018-04-06T06:50:19.723Z,46.31
2018-04-06T06:51:19.731Z,46.41
2018-04-06T06:52:19.722Z,46.98
2018-04-06T06:53:19.725Z,46.31
2018-04-06T06:54:19.812Z,46.98
2018-04-06T06:55:19.736Z,46.59
2018-04-06T06:56:19.742Z,46.23
2018-04-06T06:57:19.741Z,45.47
2018-04-06T06:58:19.494Z,45.37
2018-04-06T06:59:19.748Z,45.28
2018-04-06T07:00:19.751Z,44.79
2018-04-06T07:01:19.763Z,43.66
2018-04-06T07:02:19.512Z,43.95
2018-04-06T07:03:19.782Z,44.02
2018-04-06T07:04:19.773Z,44.05
2018-04-06T07:05:19.776Z,43.95
2018-04-06T07:06:19.524Z,43.76
2018-04-06T07:07:19.531Z,42.6
2018-04-06T07:08:19.585Z,41.93
2018-04-06T07:09:19.539Z,42.22
2018-04-06T07:10:19.827Z,41.83
2018-04-06T07:11:19.547Z,42.03
2018-04-06T07:12:19.805Z,42.22
2018-04-06T07:13:20.112Z,42.12
2018-04-06T07:14:19.815Z,42.41
2018-04-06T07:15:19.828Z,42.8
2018-04-06T07:16:19.828Z,42.99
2018-04-06T07:17:19.827Z,42.7
2018-04-06T07:18:19.854Z,42.22
2018-04-06T07:19:19.864Z,42.41
2018-04-06T07:20:19.862Z,42.6
2018-04-06T07:21:19.870Z,42.43
2018-04-06T07:22:19.867Z,41.95
2018-04-06T07:23:19.877Z,42.33
2018-04-06T07:24:19.869Z,42.14
2018-04-06T07:25:19.900Z,41.28
2018-04-06T07:26:19.876Z,40.89
2018-04-06T07:27:19.888Z,41.28
2018-04-06T07:28:19.886Z,41.95
2018-04-06T07:29:19.903Z,41.86
2018-04-06T07:30:19.911Z,41.56
2018-04-06T07:31:19.924Z,41.18
2018-04-06T07:32:19.666Z,41.18
2018-04-06T07:33:19.930Z,40.8
2018-04-06T07:34:19.944Z,40.8
2018-04-06T07:35:19.932Z,40.89
2018-04-06T07:36:19.890Z,40.41
2018-04-06T07:37:19.706Z,40.61
2018-04-06T07:38:19.699Z,41.08
2018-04-06T07:39:19.980Z,40.89
2018-04-06T07:40:20.012Z,40.31
2018-04-06T07:41:19.990Z,40.31
2018-04-06T07:42:19.996Z,40.22
2018-04-06T07:43:19.736Z,40.12
2018-04-06T07:44:20.217Z,40.7
2018-04-06T07:45:20.020Z,40.61
2018-04-06T07:46:20.016Z,40.22
2018-04-06T07:47:19.770Z,41.08
2018-04-06T07:48:20.035Z,40.99
2018-04-06T07:49:19.793Z,40.14
2018-04-06T07:50:20.050Z,40.34
2018-04-06T07:51:20.059Z,39.95
2018-04-06T07:52:20.079Z,39.97
2018-04-06T07:53:20.080Z,39.87
2018-04-06T07:54:19.832Z,38.81
2018-04-06T07:55:20.094Z,38.43
2018-04-06T07:56:22.301Z,37.96
2018-04-06T07:57:20.116Z,37.96
2018-04-06T07:58:20.120Z,37.77
2018-04-06T07:59:20.173Z,37.39
2018-04-06T08:00:20.143Z,37.29
2018-04-06T08:01:20.143Z,37.48
2018-04-06T08:02:20.183Z,38.24
2018-04-06T08:03:20.217Z,37.76
2018-04-06T08:04:20.181Z,37.85
2018-04-06T08:05:20.203Z,37.85
2018-04-06T08:06:20.181Z,37.16
2018-04-06T08:07:20.245Z,37.45
2018-04-06T08:08:20.207Z,37.93
2018-04-06T08:09:20.257Z,38.39
2018-04-06T08:10:20.251Z,39.36
2018-04-06T08:11:20.258Z,38.97
2018-04-06T08:12:19.982Z,39.16
2018-04-06T08:13:20.244Z,39.81
2018-04-06T08:14:20.263Z,39.7
2018-04-06T08:15:19.998Z,40.18
2018-04-06T08:16:20.251Z,40.08
2018-04-06T08:17:20.259Z,40.73
2018-04-06T08:18:20.469Z,40.93
2018-04-06T08:19:20.264Z,40.91
2018-04-06T08:20:20.017Z,41.27
2018-04-06T08:21:20.294Z,41.27
2018-04-06T08:22:20.338Z,41.73
2018-04-06T08:23:20.344Z,41.54
2018-04-06T08:24:20.344Z,42.38
2018-04-06T08:25:20.295Z,42.57
2018-04-06T08:26:20.139Z,43.9
2018-04-06T08:27:20.318Z,44.83
2018-04-06T08:28:20.095Z,45.12
2018-04-06T08:29:20.355Z,46.05
2018-04-06T08:30:20.326Z,46.15
2018-04-06T08:31:20.348Z,47.37
2018-04-06T08:32:20.069Z,47.85
2018-04-06T08:33:20.327Z,48.71
2018-04-06T08:34:20.322Z,49.45
2018-04-06T08:35:20.587Z,50.21
2018-04-06T08:36:20.321Z,50.67
2018-04-06T08:37:20.321Z,51.34
2018-04-06T08:38:20.317Z,51.5
2018-04-06T08:39:20.342Z,52.65
2018-04-06T08:40:20.313Z,53.13
2018-04-06T08:41:20.308Z,53.67
2018-04-06T08:42:20.045Z,53.96
2018-04-06T08:43:20.310Z,53.96
2018-04-06T08:44:20.334Z,54.41
2018-04-06T08:45:20.329Z,55.08
2018-04-06T08:46:20.283Z,55.27
2018-04-06T08:47:20.296Z,56.23
2018-04-06T08:48:20.280Z,57.46
2018-04-06T08:49:20.270Z,57.37
2018-04-06T08:50:20.278Z,57.34
2018-04-06T08:51:20.273Z,57.34
2018-04-06T08:52:20.265Z,57.63
2018-04-06T08:53:20.287Z,57.82
2018-04-06T08:54:20.262Z,58.29
2018-04-06T08:55:20.265Z,58.77
2018-04-06T08:56:19.987Z,59.06
2018-04-06T08:57:20.243Z,59.79
2018-04-06T08:58:20.234Z,59.41
2018-04-06T08:59:20.005Z,58.55
2018-04-06T09:00:20.219Z,58.75
2018-04-06T09:01:19.961Z,60.17
2018-04-06T09:02:19.967Z,61.13
2018-04-06T09:03:20.202Z,60.27
2018-04-06T09:04:20.201Z,60.36
2018-04-06T09:05:20.223Z,60.75
2018-04-06T09:06:20.193Z,60.75
2018-04-06T09:07:20.190Z,61.51
2018-04-06T09:08:20.223Z,61.32
2018-04-06T09:09:19.933Z,61.22
2018-04-06T09:10:20.165Z,61.04
2018-04-06T09:11:20.171Z,61.57
2018-04-06T09:12:20.178Z,61.76
2018-04-06T09:13:20.158Z,61.67
2018-04-06T09:14:20.142Z,61.76
2018-04-06T09:15:20.134Z,61.96
2018-04-06T09:16:19.892Z,61.86
2018-04-06T09:17:20.125Z,63
2018-04-06T09:18:20.156Z,62.52
2018-04-06T09:19:20.110Z,63.1
2018-04-06T09:20:20.105Z,63
2018-04-06T09:21:20.183Z,63.67
2018-04-06T09:22:20.101Z,63.39
2018-04-06T09:23:20.085Z,63.86
2018-04-06T09:24:20.079Z,63.67
2018-04-06T09:25:20.072Z,63.48
2018-04-06T09:26:20.068Z,63.48
2018-04-06T09:27:20.076Z,63.67
2018-04-06T09:28:20.059Z,63.29
2018-04-06T09:29:20.052Z,63.39
2018-04-06T09:30:19.810Z,63.57
2018-04-06T09:31:20.047Z,63.57
2018-04-06T09:32:20.033Z,63.29
2018-04-06T09:33:20.046Z,63.29
2018-04-06T09:34:19.811Z,63.42
2018-04-06T09:35:20.022Z,63.1
2018-04-06T09:36:20.050Z,62.81
2018-04-06T09:37:20.000Z,60.14
2018-04-06T09:38:19.994Z,59
2018-04-06T09:39:19.992Z,58.52
2018-04-06T09:40:20.028Z,57.95
2018-04-06T09:41:20.022Z,57.95
2018-04-06T09:42:19.722Z,57.86
2018-04-06T09:43:19.983Z,58.14
2018-04-06T09:44:19.974Z,58.43
2018-04-06T09:45:19.962Z,58.81
2018-04-06T09:46:19.979Z,58.81
2018-04-06T09:47:20.007Z,58.72
2018-04-06T09:48:19.973Z,59.95
2018-04-06T09:49:19.679Z,60.81
2018-04-06T09:50:19.928Z,61.57
2018-04-06T09:51:19.906Z,61.76
2018-04-06T09:52:19.931Z,62.52
2018-04-06T09:53:19.939Z,62.62
2018-04-06T09:54:19.913Z,62.81
2018-04-06T09:55:19.925Z,62.62
2018-04-06T09:56:19.893Z,62.52
2018-04-06T09:57:19.945Z,60.62
2018-04-06T09:58:19.870Z,59.86
2018-04-06T09:59:19.882Z,59
2018-04-06T10:00:19.863Z,58.72
2018-04-06T10:01:19.843Z,58.91
2018-04-06T10:02:19.853Z,58.43
2018-04-06T10:03:19.837Z,57.95
2018-04-06T10:04:19.849Z,57.48
2018-04-06T10:05:19.817Z,57.86
2018-04-06T10:06:19.820Z,56.14
2018-04-06T10:07:19.806Z,56.52
2018-04-06T10:08:19.543Z,56.43
2018-04-06T10:09:19.797Z,56.71
2018-04-06T10:10:19.538Z,56.14
2018-04-06T10:11:19.782Z,57.48
2018-04-06T10:12:19.769Z,57.38
2018-04-06T10:13:19.780Z,56.81
2018-04-06T10:14:19.781Z,56.62
2018-04-06T10:15:19.778Z,56.81
2018-04-06T10:16:19.811Z,57
2018-04-06T10:17:19.767Z,56.9
2018-04-06T10:18:19.747Z,57.95
2018-04-06T10:19:19.740Z,58.33
2018-04-06T10:20:19.748Z,57.98
2018-04-06T10:21:19.723Z,58.65
2018-04-06T10:22:19.720Z,58.75
2018-04-06T10:23:19.722Z,59.12
2018-04-06T10:24:19.720Z,58.75
2018-04-06T10:25:19.703Z,58.55
2018-04-06T10:26:19.728Z,58.46
2018-04-06T10:27:19.686Z,58.17
2018-04-06T10:28:19.687Z,58.55
2018-04-06T10:29:19.675Z,59.22
2018-04-06T10:30:19.661Z,58.84
2018-04-06T10:31:19.646Z,58.55
2018-04-06T10:32:19.384Z,58.65
2018-04-06T10:33:19.753Z,57.7
2018-04-06T10:34:19.624Z,57.6
2018-04-06T10:35:19.634Z,58.07
2018-04-06T10:36:19.636Z,58.55
2018-04-06T10:37:19.616Z,58.65
2018-04-06T10:38:19.363Z,58.26
2018-04-06T10:39:19.637Z,58.17
2018-04-06T10:40:19.618Z,58.07
2018-04-06T10:41:19.337Z,58.17
2018-04-06T10:42:19.570Z,57.89
2018-04-06T10:43:19.568Z,58.26
2018-04-06T10:44:19.319Z,57.6
2018-04-06T10:45:19.638Z,57.41
2018-04-06T10:46:19.293Z,57.6
2018-04-06T10:47:19.551Z,57.79
2018-04-06T10:48:19.551Z,58.17
2018-04-06T10:49:19.551Z,58.36
2018-04-06T10:50:19.535Z,58.84
2018-04-06T10:51:19.285Z,58.36
2018-04-06T10:52:19.266Z,57.98
2018-04-06T10:53:19.745Z,57.6
2018-04-06T10:54:19.245Z,57.6
2018-04-06T10:55:19.497Z,57.79
2018-04-06T10:56:19.228Z,57.6
2018-04-06T10:57:19.476Z,57.7
2018-04-06T10:58:19.476Z,57.6
2018-04-06T10:59:19.212Z,58.55
2018-04-06T11:00:19.454Z,58.17
2018-04-06T11:01:19.195Z,56.74
2018-04-06T11:02:19.189Z,56.36
2018-04-06T11:03:19.439Z,56.26
2018-04-06T11:04:19.432Z,56.74
2018-04-06T11:05:19.423Z,57.03
2018-04-06T11:06:19.420Z,57.12
2018-04-06T11:07:19.410Z,57.31
2018-04-06T11:08:19.423Z,57.41
2018-04-06T11:09:19.401Z,55.6
2018-04-06T11:10:19.390Z,56.07
2018-04-06T11:11:19.391Z,56.26
2018-04-06T11:12:19.392Z,56.46
2018-04-06T11:13:19.371Z,56.36
2018-04-06T11:14:19.115Z,56.65
2018-04-06T11:15:19.359Z,56.46
2018-04-06T11:16:19.367Z,56.55
2018-04-06T11:17:19.353Z,56.65
2018-04-06T11:18:19.339Z,56.55
2018-04-06T11:19:19.331Z,56.84
2018-04-06T11:20:19.326Z,56.93
2018-04-06T11:21:19.331Z,57.7
2018-04-06T11:22:19.328Z,57.98
2018-04-06T11:23:19.317Z,57.22
2018-04-06T11:24:19.322Z,57.22
2018-04-06T11:25:19.300Z,56.93
2018-04-06T11:26:19.287Z,57.31
2018-04-06T11:27:19.283Z,57.5
2018-04-06T11:28:19.273Z,57.6
2018-04-06T11:29:19.026Z,57.41
2018-04-06T11:30:19.260Z,56.74
2018-04-06T11:31:19.259Z,56.36
2018-04-06T11:32:18.996Z,55.21
2018-04-06T11:33:19.245Z,55.5
2018-04-06T11:34:19.235Z,55.5
2018-04-06T11:35:18.982Z,55.41
2018-04-06T11:36:19.237Z,55.41
2018-04-06T11:37:18.965Z,55.5
2018-04-06T11:38:19.238Z,55.5
2018-04-06T11:39:19.204Z,55.21
2018-04-06T11:40:18.960Z,55.02
2018-04-06T11:41:18.936Z,55.41
2018-04-06T11:42:19.187Z,56.07
2018-04-06T11:43:19.180Z,56.84
2018-04-06T11:44:19.178Z,56.93
2018-04-06T11:45:19.169Z,56.93
2018-04-06T11:46:19.164Z,57.41
2018-04-06T11:47:19.154Z,57.41
2018-04-06T11:48:19.143Z,57.22
2018-04-06T11:49:19.138Z,57.03
2018-04-06T11:50:18.878Z,57.41
2018-04-06T11:51:19.131Z,58.26
2018-04-06T11:52:19.117Z,57.7
2018-04-06T11:53:19.112Z,57.79
2018-04-06T11:54:19.109Z,58.07
2018-04-06T11:55:19.102Z,58.07
2018-04-06T11:56:19.096Z,57.22
2018-04-06T11:57:18.832Z,57.53
2018-04-06T11:58:19.078Z,57.6
2018-04-06T11:59:19.073Z,57.5
2018-04-06T12:00:18.813Z,57.34
2018-04-06T12:01:19.062Z,57.06
2018-04-06T12:02:19.076Z,55.82
2018-04-06T12:03:18.808Z,56.1
2018-04-06T12:04:19.065Z,56.2
2018-04-06T12:05:19.039Z,56.01
2018-04-06T12:06:19.030Z,55.43
2018-04-06T12:07:19.027Z,55.53
2018-04-06T12:08:19.015Z,55.05
2018-04-06T12:09:19.011Z,55.05
2018-04-06T12:10:19.004Z,55.15
2018-04-06T12:11:19.404Z,56.1
2018-04-06T12:12:19.000Z,56.67
2018-04-06T12:13:18.982Z,57.06
2018-04-06T12:14:18.980Z,56.96
2018-04-06T12:15:18.970Z,57.15
2018-04-06T12:16:18.966Z,57.53
2018-04-06T12:17:18.970Z,56.87
2018-04-06T12:18:18.703Z,57.72
2018-04-06T12:19:19.362Z,57.24
2018-04-06T12:20:18.957Z,58.11
2018-04-06T12:21:18.952Z,57.53
2018-04-06T12:22:18.935Z,57.43
2018-04-06T12:23:18.923Z,56.2
2018-04-06T12:24:18.913Z,56.01
2018-04-06T12:25:18.675Z,56.29
2018-04-06T12:26:18.931Z,56.48
2018-04-06T12:27:18.893Z,56.29
2018-04-06T12:28:18.887Z,56.1
2018-04-06T12:29:18.895Z,56.01
2018-04-06T12:30:18.874Z,55.43
2018-04-06T12:31:18.870Z,55.24
2018-04-06T12:32:18.609Z,55.05
2018-04-06T12:33:18.860Z,55.05
2018-04-06T12:34:18.849Z,55.15
2018-04-06T12:35:18.842Z,54.48
2018-04-06T12:36:18.836Z,54.38
2018-04-06T12:37:18.838Z,54.57
2018-04-06T12:38:18.832Z,54.96
2018-04-06T12:39:18.565Z,54.77
2018-04-06T12:40:18.835Z,55.15
2018-04-06T12:41:18.804Z,54.38
2018-04-06T12:42:18.800Z,53.14
2018-04-06T12:43:18.796Z,53.62
2018-04-06T12:44:18.801Z,55.15
2018-04-06T12:45:18.786Z,55.34
2018-04-06T12:46:18.780Z,55.43
2018-04-06T12:47:18.770Z,54.96
2018-04-06T12:48:18.764Z,54.67
2018-04-06T12:49:18.755Z,55.15
2018-04-06T12:50:18.749Z,54.96
2018-04-06T12:51:18.743Z,54.96
2018-04-06T12:52:18.736Z,55.05
2018-04-06T12:53:18.735Z,54.86
2018-04-06T12:54:18.733Z,55.53
2018-04-06T12:55:18.735Z,55.53
2018-04-06T12:56:18.722Z,55.24
2018-04-06T12:57:18.707Z,56.1
2018-04-06T12:58:18.713Z,55.27
2018-04-06T12:59:18.692Z,55.18
2018-04-06T13:00:18.688Z,55.05
2018-04-06T13:01:18.680Z,55.08
2018-04-06T13:02:18.692Z,54.79